Time;durP1;ratioP1;P1;durP2;ratioP2;P2;SDS_P1;SDS_P2;PMS_P1;PMS_P2;Temp;Humidity;BMP_temperature;BMP_pressure;BME280_temperature;BME280_humidity;BME280_pressure;Samples;Min_cycle;Max_cycle;Signal;HPM_P1;HPM_P2
2024/03/11 00:00:37;;;;;;;24.87;19.13;;;7.60;99.90;;;;;;5016667;28;20519;-64
2024/03/11 00:03:07;;;;;;;25.77;18.00;;;7.60;99.90;;;;;;5010841;28;20973;-64
2024/03/11 00:05:35;;;;;;;20.50;16.30;;;7.50;99.90;;;;;;5010768;28;20976;-64
2024/03/11 00:08:04;;;;;;;25.40;18.83;;;7.50;99.90;;;;;;5015475;28;20475;-64
2024/03/11 00:10:33;;;;;;;24.53;17.63;;;7.50;99.90;;;;;;5013118;28;20487;-64
2024/03/11 00:13:02;;;;;;;25.90;17.40;;;7.50;99.90;;;;;;5016166;28;20484;-65
2024/03/11 00:15:30;;;;;;;23.40;17.70;;;7.50;99.90;;;;;;5013420;28;20547;-64
2024/03/11 00:18:00;;;;;;;23.40;18.43;;;7.40;99.90;;;;;;5014936;28;20558;-65
2024/03/11 00:20:28;;;;;;;23.13;16.70;;;7.40;99.90;;;;;;5014801;28;20483;-64
2024/03/11 00:22:57;;;;;;;22.13;17.70;;;7.40;99.90;;;;;;5018106;28;20464;-64
2024/03/11 00:25:25;;;;;;;22.53;17.50;;;7.40;99.90;;;;;;5037418;28;20478;-64
2024/03/11 00:27:53;;;;;;;23.43;17.27;;;7.40;99.90;;;;;;5032252;28;20486;-65
2024/03/11 00:30:21;;;;;;;23.20;17.00;;;7.40;99.90;;;;;;5036452;28;20566;-64
2024/03/11 00:32:52;;;;;;;24.80;18.20;;;7.30;99.90;;;;;;5035469;28;21519;-65
2024/03/11 00:35:24;;;;;;;23.03;17.63;;;7.30;99.90;;;;;;5011631;28;20464;-64
2024/03/11 00:37:52;;;;;;;21.60;17.10;;;7.30;99.90;;;;;;5010633;28;20472;-64
2024/03/11 00:40:20;;;;;;;21.50;15.77;;;7.20;99.90;;;;;;5016990;28;20614;-64
2024/03/11 00:42:48;;;;;;;25.40;17.17;;;7.30;99.90;;;;;;5007407;28;20906;-64
2024/03/11 00:45:18;;;;;;;23.00;17.20;;;7.20;99.90;;;;;;5005884;28;20471;-64
2024/03/11 00:47:46;;;;;;;22.27;17.07;;;7.20;99.90;;;;;;5013500;28;20488;-66
2024/03/11 00:50:14;;;;;;;22.63;16.13;;;7.20;99.90;;;;;;5016543;28;20505;-64
2024/03/11 00:52:44;;;;;;;21.80;16.23;;;7.20;99.90;;;;;;5012250;28;20471;-64
2024/03/11 00:55:13;;;;;;;22.97;17.17;;;7.20;99.90;;;;;;5016931;28;20950;-64
2024/03/11 00:57:42;;;;;;;23.50;17.40;;;7.20;99.90;;;;;;5008001;28;20620;-64
2024/03/11 01:00:12;;;;;;;22.77;16.43;;;7.20;99.90;;;;;;5012249;28;20500;-64
2024/03/11 01:02:41;;;;;;;24.23;17.57;;;7.10;99.90;;;;;;5011897;28;21160;-64
2024/03/11 01:05:11;;;;;;;21.20;16.83;;;7.20;99.90;;;;;;5014736;28;20463;-64
2024/03/11 01:07:39;;;;;;;23.57;16.57;;;7.20;99.90;;;;;;5013761;28;20494;-63
2024/03/11 01:10:16;;;;;;;23.83;16.67;;;7.10;99.90;;;;;;5011541;28;20492;-64
2024/03/11 01:12:44;;;;;;;26.13;17.30;;;7.20;99.90;;;;;;5010859;28;20557;-66
2024/03/11 01:15:13;;;;;;;24.03;17.30;;;7.20;99.90;;;;;;5012665;28;20537;-63
2024/03/11 01:17:41;;;;;;;23.00;16.80;;;7.20;99.90;;;;;;5010553;28;20567;-67
2024/03/11 01:20:15;;;;;;;24.63;18.10;;;7.10;99.90;;;;;;5013377;28;21021;-67
2024/03/11 01:22:44;;;;;;;21.87;16.80;;;7.20;99.90;;;;;;5011196;28;20477;-64
2024/03/11 01:25:12;;;;;;;22.60;16.90;;;7.10;99.90;;;;;;5017174;28;20492;-64
2024/03/11 01:27:42;;;;;;;21.27;16.67;;;7.10;99.90;;;;;;5013103;28;20499;-64
2024/03/11 01:30:11;;;;;;;22.83;16.93;;;7.10;99.90;;;;;;5015560;28;20502;-64
2024/03/11 01:32:44;;;;;;;25.33;17.07;;;7.10;99.90;;;;;;5013800;28;20464;-66
2024/03/11 01:35:13;;;;;;;23.53;17.70;;;7.10;99.90;;;;;;5015589;28;20828;-66
2024/03/11 01:37:42;;;;;;;21.80;16.93;;;7.10;99.90;;;;;;5004811;28;20476;-66
2024/03/11 01:40:11;;;;;;;28.00;18.23;;;7.10;99.90;;;;;;5011054;28;20567;-63
2024/03/11 01:42:42;;;;;;;22.50;17.50;;;7.10;99.90;;;;;;5006679;28;20474;-63
2024/03/11 01:45:12;;;;;;;23.83;17.70;;;7.10;99.90;;;;;;5034030;28;20585;-64
2024/03/11 01:47:42;;;;;;;25.50;19.40;;;7.10;99.90;;;;;;5037013;28;20500;-65
2024/03/11 01:50:13;;;;;;;23.27;17.80;;;7.10;99.90;;;;;;5030767;28;20502;-65
2024/03/11 01:52:46;;;;;;;22.20;17.30;;;7.10;99.90;;;;;;5030608;28;20648;-64
2024/03/11 01:55:15;;;;;;;25.03;16.47;;;7.10;99.90;;;;;;5015453;28;20583;-64
2024/03/11 01:57:46;;;;;;;25.90;17.33;;;7.10;99.90;;;;;;5014410;28;20473;-64
2024/03/11 02:00:15;;;;;;;22.17;16.90;;;7.10;99.90;;;;;;5016040;28;20552;-64
2024/03/11 02:02:43;;;;;;;19.77;16.00;;;7.10;99.90;;;;;;5012709;28;20585;-65
2024/03/11 02:05:14;;;;;;;24.93;16.33;;;7.10;99.90;;;;;;5013343;28;20471;-64
2024/03/11 02:07:44;;;;;;;20.93;16.17;;;7.10;99.90;;;;;;5017128;28;20545;-64
2024/03/11 02:10:14;;;;;;;22.47;16.80;;;7.10;99.90;;;;;;5016122;28;20491;-64
2024/03/11 02:12:46;;;;;;;21.93;17.00;;;7.10;99.90;;;;;;5014314;28;20852;-65
2024/03/11 02:15:17;;;;;;;21.20;15.70;;;7.10;99.90;;;;;;5010332;28;20471;-64
2024/03/11 02:17:46;;;;;;;20.00;15.33;;;7.10;99.90;;;;;;5015269;28;20482;-64
2024/03/11 02:20:16;;;;;;;20.43;14.90;;;7.10;99.90;;;;;;5015871;28;20598;-64
2024/03/11 02:22:49;;;;;;;23.17;15.13;;;7.10;99.90;;;;;;5017311;28;20501;-64
2024/03/11 02:25:20;;;;;;;21.70;15.20;;;7.10;99.90;;;;;;5011675;28;20566;-65
2024/03/11 02:27:49;;;;;;;21.83;15.80;;;7.10;99.90;;;;;;5017557;28;20535;-64
2024/03/11 02:30:17;;;;;;;24.40;15.70;;;7.00;99.90;;;;;;5014746;28;20994;-64
2024/03/11 02:32:46;;;;;;;20.80;15.20;;;7.00;99.90;;;;;;5020241;28;20742;-64
2024/03/11 02:35:15;;;;;;;22.50;16.60;;;7.00;99.90;;;;;;5021150;28;20971;-64
2024/03/11 02:37:44;;;;;;;20.47;15.07;;;7.00;99.90;;;;;;5018413;28;20474;-63
2024/03/11 02:40:14;;;;;;;22.87;16.17;;;7.00;99.90;;;;;;5019591;28;20487;-64
2024/03/11 02:42:44;;;;;;;23.50;16.07;;;7.00;99.90;;;;;;5015381;28;20486;-64
2024/03/11 02:45:14;;;;;;;19.57;15.13;;;7.00;99.90;;;;;;5017870;28;20471;-64
2024/03/11 02:47:42;;;;;;;24.20;15.73;;;7.00;99.90;;;;;;5017492;28;20488;-63
2024/03/11 02:50:13;;;;;;;20.23;15.13;;;6.90;99.90;;;;;;5017192;28;20871;-64
2024/03/11 02:52:42;;;;;;;20.83;15.30;;;6.90;99.90;;;;;;5019351;28;20483;-66
2024/03/11 02:55:13;;;;;;;20.67;15.27;;;6.90;99.90;;;;;;5014555;28;20475;-66
2024/03/11 02:57:47;;;;;;;20.10;15.70;;;6.90;99.90;;;;;;5015122;28;20563;-64
2024/03/11 03:00:16;;;;;;;18.90;15.50;;;6.90;99.90;;;;;;5014120;28;20490;-64
2024/03/11 03:02:46;;;;;;;17.27;14.03;;;6.90;99.90;;;;;;5009613;28;20483;-67
2024/03/11 03:05:14;;;;;;;21.80;15.77;;;6.90;99.90;;;;;;5017325;28;20501;-66
2024/03/11 03:07:42;;;;;;;21.37;15.50;;;6.90;99.90;;;;;;5018665;28;20589;-64
2024/03/11 03:10:11;;;;;;;20.67;15.10;;;6.80;99.90;;;;;;5013492;28;20586;-64
2024/03/11 03:12:39;;;;;;;22.00;16.80;;;6.80;99.90;;;;;;5016509;28;20464;-64
2024/03/11 03:15:10;;;;;;;20.20;16.07;;;6.90;99.90;;;;;;5014240;28;20599;-65
2024/03/11 03:17:39;;;;;;;22.57;15.30;;;6.80;99.90;;;;;;5010626;28;20469;-64
2024/03/11 03:20:10;;;;;;;20.50;15.43;;;6.90;99.90;;;;;;5017372;28;20557;-64
2024/03/11 03:22:39;;;;;;;22.07;16.87;;;6.90;99.90;;;;;;5014219;28;20572;-65
2024/03/11 03:25:09;;;;;;;26.33;16.70;;;6.90;99.90;;;;;;5011682;28;20498;-65
2024/03/11 03:27:37;;;;;;;20.47;15.73;;;6.80;99.90;;;;;;5014535;28;20485;-65
2024/03/11 03:30:09;;;;;;;20.20;16.20;;;6.90;99.90;;;;;;5015818;28;20509;-66
2024/03/11 03:32:38;;;;;;;20.60;16.17;;;6.90;99.90;;;;;;5013963;28;20933;-66
2024/03/11 03:35:07;;;;;;;22.67;16.80;;;6.80;99.90;;;;;;5012135;28;20500;-63
2024/03/11 03:37:35;;;;;;;21.10;16.20;;;6.80;99.90;;;;;;5017425;28;20474;-64
2024/03/11 03:40:15;;;;;;;25.40;17.57;;;6.80;99.90;;;;;;5015571;28;20502;-66
2024/03/11 03:42:44;;;;;;;21.33;16.50;;;6.90;99.90;;;;;;5011215;28;20557;-64
2024/03/11 03:45:15;;;;;;;18.13;15.47;;;6.90;99.90;;;;;;5017429;28;20559;-65
2024/03/11 03:47:45;;;;;;;19.43;15.83;;;6.90;99.90;;;;;;5015552;28;20483;-64
2024/03/11 03:50:14;;;;;;;22.60;16.43;;;6.90;99.90;;;;;;5018782;28;20480;-64
2024/03/11 03:52:43;;;;;;;18.30;15.37;;;6.90;99.90;;;;;;5014634;28;20479;-64
2024/03/11 03:55:12;;;;;;;21.43;16.00;;;6.90;99.90;;;;;;5020179;28;20540;-64
2024/03/11 03:57:40;;;;;;;21.70;15.43;;;7.00;99.90;;;;;;5008935;28;20910;-65
2024/03/11 04:00:15;;;;;;;24.20;16.73;;;7.00;99.90;;;;;;5009410;28;20492;-64
2024/03/11 04:02:45;;;;;;;20.93;16.00;;;7.00;99.90;;;;;;5013999;28;20497;-63
2024/03/11 04:05:14;;;;;;;24.87;16.47;;;7.00;99.90;;;;;;5020511;28;20548;-63
2024/03/11 04:07:42;;;;;;;18.77;16.03;;;6.90;99.90;;;;;;5018439;28;20467;-64
2024/03/11 04:10:13;;;;;;;20.53;16.23;;;6.90;99.90;;;;;;5016843;28;21004;-64
2024/03/11 04:12:44;;;;;;;23.47;16.87;;;6.90;99.90;;;;;;5012271;28;20511;-64
2024/03/11 04:15:14;;;;;;;22.83;16.40;;;6.90;99.90;;;;;;5018216;28;20503;-64
2024/03/11 04:17:44;;;;;;;22.13;15.97;;;6.90;99.90;;;;;;5013547;28;20894;-65
2024/03/11 04:20:15;;;;;;;19.50;15.60;;;6.90;99.90;;;;;;5017631;28;21019;-65
2024/03/11 04:22:44;;;;;;;24.07;16.53;;;6.90;99.90;;;;;;5014380;28;20507;-64
2024/03/11 04:25:16;;;;;;;22.97;16.03;;;6.90;99.90;;;;;;5016710;28;20472;-65
2024/03/11 04:27:46;;;;;;;23.47;15.77;;;6.90;99.90;;;;;;5012187;28;20987;-63
2024/03/11 04:30:15;;;;;;;22.13;17.00;;;6.90;99.90;;;;;;5019334;28;20937;-63
2024/03/11 04:32:51;;;;;;;21.87;15.57;;;6.80;99.90;;;;;;5016805;28;21302;-64
2024/03/11 04:35:24;;;;;;;21.30;14.80;;;6.90;99.90;;;;;;5018520;28;20468;-64
2024/03/11 04:37:53;;;;;;;19.50;15.30;;;6.80;99.90;;;;;;5015563;28;20555;-65
2024/03/11 04:40:21;;;;;;;20.40;16.50;;;6.80;99.90;;;;;;5014052;28;20529;-64
2024/03/11 04:42:49;;;;;;;22.30;16.13;;;6.90;99.90;;;;;;5009232;28;20467;-64
2024/03/11 04:45:17;;;;;;;19.73;15.70;;;6.90;99.90;;;;;;5015385;28;20511;-63
2024/03/11 04:47:45;;;;;;;22.97;16.30;;;6.90;99.90;;;;;;5013300;28;21302;-64
2024/03/11 04:50:20;;;;;;;25.73;16.50;;;6.90;99.90;;;;;;5016181;28;20527;-64
2024/03/11 04:52:50;;;;;;;20.03;15.90;;;6.90;99.90;;;;;;5014952;28;20478;-64
2024/03/11 04:55:18;;;;;;;20.73;15.97;;;6.90;99.90;;;;;;5014588;28;20645;-65
2024/03/11 04:57:47;;;;;;;19.93;16.20;;;6.90;99.90;;;;;;5017019;28;21016;-66
2024/03/11 05:00:17;;;;;;;19.60;14.33;;;6.90;99.90;;;;;;5018078;28;20521;-66
2024/03/11 05:02:45;;;;;;;18.90;15.23;;;6.90;99.90;;;;;;5007563;28;20485;-66
2024/03/11 05:05:14;;;;;;;25.33;16.70;;;6.90;99.90;;;;;;5016735;28;20472;-66
2024/03/11 05:07:42;;;;;;;19.73;15.80;;;7.00;99.90;;;;;;5016886;28;20475;-66
2024/03/11 05:10:13;;;;;;;19.43;15.70;;;6.90;99.90;;;;;;5013854;28;21071;-67
2024/03/11 05:12:41;;;;;;;20.37;15.33;;;6.90;99.90;;;;;;5012470;28;20836;-67
2024/03/11 05:15:10;;;;;;;22.53;15.40;;;7.00;99.90;;;;;;5016791;28;20549;-64
2024/03/11 05:17:38;;;;;;;18.90;15.70;;;7.00;99.90;;;;;;5017032;28;20639;-66
2024/03/11 05:20:14;;;;;;;19.90;15.43;;;7.00;99.90;;;;;;5012409;28;20494;-64
2024/03/11 05:22:43;;;;;;;18.60;15.40;;;7.00;99.90;;;;;;5014095;28;20480;-66
2024/03/11 05:25:14;;;;;;;21.30;15.97;;;7.00;99.90;;;;;;5012722;28;20471;-66
2024/03/11 05:27:44;;;;;;;20.77;15.20;;;7.00;99.90;;;;;;5014373;28;20499;-65
2024/03/11 05:30:12;;;;;;;19.03;15.93;;;7.00;99.90;;;;;;5015826;28;20572;-64
2024/03/11 05:32:41;;;;;;;20.47;15.97;;;7.00;99.90;;;;;;5009852;28;20483;-63
2024/03/11 05:35:10;;;;;;;19.70;16.40;;;7.00;99.90;;;;;;5014312;28;20570;-63
2024/03/11 05:37:38;;;;;;;20.80;15.47;;;7.00;99.90;;;;;;5012475;28;20461;-64
2024/03/11 05:40:11;;;;;;;20.97;16.10;;;7.00;99.90;;;;;;5008171;28;20523;-64
2024/03/11 05:42:41;;;;;;;22.43;16.17;;;7.00;99.90;;;;;;5016615;28;20481;-64
2024/03/11 05:45:11;;;;;;;16.30;13.57;;;7.00;99.90;;;;;;5014976;28;21075;-64
2024/03/11 05:47:41;;;;;;;22.27;16.87;;;7.00;99.90;;;;;;5007120;28;21558;-66
2024/03/11 05:50:12;;;;;;;25.23;16.17;;;7.00;99.90;;;;;;5005447;28;20495;-66
2024/03/11 05:52:44;;;;;;;18.77;15.77;;;7.00;99.90;;;;;;5005557;28;20476;-64
2024/03/11 05:55:13;;;;;;;18.57;14.03;;;7.00;99.90;;;;;;5004085;28;20487;-66
2024/03/11 05:57:43;;;;;;;17.83;14.83;;;7.00;99.90;;;;;;5013105;28;20490;-64
2024/03/11 06:00:15;;;;;;;22.40;15.57;;;7.00;99.90;;;;;;5009239;28;20488;-65
2024/03/11 06:02:45;;;;;;;20.87;16.17;;;7.00;99.90;;;;;;5006167;28;20472;-65
2024/03/11 06:05:16;;;;;;;20.70;16.27;;;7.10;99.90;;;;;;5010346;28;20475;-64
2024/03/11 06:07:44;;;;;;;18.87;16.30;;;7.10;99.90;;;;;;5007574;28;20541;-64
2024/03/11 06:10:13;;;;;;;23.33;15.70;;;7.00;99.90;;;;;;4997997;28;20530;-64
2024/03/11 06:12:43;;;;;;;20.00;16.90;;;7.00;99.90;;;;;;4995056;28;21425;-64
2024/03/11 06:15:12;;;;;;;22.10;16.00;;;7.00;99.90;;;;;;5007049;28;21806;-64
2024/03/11 06:17:41;;;;;;;23.17;16.10;;;7.10;99.90;;;;;;5001096;28;20936;-64
2024/03/11 06:20:13;;;;;;;19.37;16.37;;;7.10;99.90;;;;;;5006915;28;20491;-65
2024/03/11 06:22:41;;;;;;;22.73;16.90;;;7.10;99.90;;;;;;4998517;28;20590;-65
2024/03/11 06:25:10;;;;;;;21.67;16.67;;;7.10;99.90;;;;;;5004955;28;21326;-64
2024/03/11 06:27:39;;;;;;;20.20;16.00;;;7.10;99.90;;;;;;5004168;28;20472;-64
2024/03/11 06:30:09;;;;;;;20.00;16.20;;;7.10;99.90;;;;;;5004512;28;21012;-64
2024/03/11 06:32:39;;;;;;;19.60;16.30;;;7.10;99.90;;;;;;5004369;28;20594;-63
2024/03/11 06:35:08;;;;;;;24.30;16.20;;;7.10;99.90;;;;;;5004082;28;20502;-65
2024/03/11 06:37:37;;;;;;;18.80;16.03;;;7.10;99.90;;;;;;5007495;28;20566;-66
2024/03/11 06:40:07;;;;;;;18.93;16.47;;;7.10;99.90;;;;;;5007815;28;20517;-65
2024/03/11 06:42:35;;;;;;;19.40;16.33;;;7.10;99.90;;;;;;5006214;28;20554;-63
2024/03/11 06:45:05;;;;;;;23.43;17.30;;;7.10;99.90;;;;;;5009343;28;20529;-63
2024/03/11 06:47:34;;;;;;;23.40;17.60;;;7.10;99.90;;;;;;5007493;28;20546;-64
2024/03/11 06:50:03;;;;;;;21.67;16.17;;;7.10;99.90;;;;;;5007216;28;20500;-64
2024/03/11 06:52:33;;;;;;;19.43;15.30;;;7.10;99.90;;;;;;5012440;28;20935;-64
2024/03/11 06:55:02;;;;;;;20.90;15.50;;;7.10;99.90;;;;;;5015095;28;20557;-63
2024/03/11 06:57:30;;;;;;;18.33;15.80;;;7.10;99.90;;;;;;5018636;28;20472;-64
2024/03/11 06:59:58;;;;;;;19.63;15.43;;;7.20;99.90;;;;;;5011017;28;20607;-64
2024/03/11 07:02:27;;;;;;;20.03;16.73;;;7.20;99.90;;;;;;5013815;28;20529;-64
2024/03/11 07:04:57;;;;;;;19.90;15.50;;;7.20;99.90;;;;;;5008663;28;20484;-64
2024/03/11 07:07:25;;;;;;;19.23;15.60;;;7.20;99.90;;;;;;5009909;28;20468;-65
2024/03/11 07:09:53;;;;;;;22.63;15.70;;;7.20;99.90;;;;;;5011305;28;20925;-64
2024/03/11 07:12:21;;;;;;;21.60;16.10;;;7.20;99.90;;;;;;5009309;28;20482;-63
2024/03/11 07:14:51;;;;;;;21.20;16.53;;;7.30;99.90;;;;;;5009394;28;20479;-65
2024/03/11 07:17:20;;;;;;;20.33;16.70;;;7.30;99.90;;;;;;5013118;28;20549;-63
2024/03/11 07:19:48;;;;;;;18.33;15.37;;;7.30;99.90;;;;;;5016863;28;20822;-64
2024/03/11 07:22:19;;;;;;;20.07;16.00;;;7.30;99.90;;;;;;5020426;28;21019;-63
2024/03/11 07:24:48;;;;;;;17.70;14.67;;;7.30;99.90;;;;;;5016834;28;20546;-64
2024/03/11 07:27:16;;;;;;;20.77;16.33;;;7.30;99.90;;;;;;5017721;28;20525;-63
2024/03/11 07:29:45;;;;;;;19.40;15.57;;;7.40;99.90;;;;;;5011045;28;20504;-65
2024/03/11 07:32:13;;;;;;;21.27;15.20;;;7.40;99.90;;;;;;5013026;28;21177;-66
2024/03/11 07:34:42;;;;;;;20.00;15.77;;;7.40;99.90;;;;;;5009439;28;20491;-64
2024/03/11 07:37:10;;;;;;;21.07;15.07;;;7.40;99.90;;;;;;5010065;28;20467;-64
2024/03/11 07:39:40;;;;;;;21.23;16.27;;;7.40;99.90;;;;;;5012206;28;20607;-64
2024/03/11 07:42:08;;;;;;;20.20;15.20;;;7.40;99.90;;;;;;5007133;28;20478;-64
2024/03/11 07:44:36;;;;;;;19.10;16.40;;;7.40;99.90;;;;;;5010983;28;20495;-64
2024/03/11 07:47:07;;;;;;;19.50;15.87;;;7.40;99.90;;;;;;5014333;28;20477;-64
2024/03/11 07:49:36;;;;;;;21.17;15.90;;;7.40;99.90;;;;;;5013346;28;20861;-64
2024/03/11 07:52:05;;;;;;;22.87;16.73;;;7.40;99.90;;;;;;5006121;28;20582;-64
2024/03/11 07:54:33;;;;;;;21.60;16.07;;;7.40;99.90;;;;;;5013150;28;20487;-63
2024/03/11 07:57:02;;;;;;;20.17;15.77;;;7.40;99.90;;;;;;5018164;28;20496;-63
2024/03/11 07:59:32;;;;;;;19.23;14.93;;;7.50;99.90;;;;;;5015369;28;20875;-64
2024/03/11 08:02:01;;;;;;;24.00;16.30;;;7.50;99.90;;;;;;5011316;28;20479;-63
2024/03/11 08:04:30;;;;;;;19.10;15.67;;;7.50;99.90;;;;;;5005581;28;20578;-65
2024/03/11 08:06:59;;;;;;;20.27;15.30;;;7.50;99.90;;;;;;5013783;28;20898;-64
2024/03/11 08:09:28;;;;;;;19.33;15.63;;;7.60;99.90;;;;;;5016508;28;20993;-64
2024/03/11 08:11:57;;;;;;;22.33;14.80;;;7.60;99.90;;;;;;5013713;28;20591;-65
2024/03/11 08:14:26;;;;;;;22.20;16.00;;;7.60;99.90;;;;;;5011671;28;21031;-64
2024/03/11 08:16:54;;;;;;;19.80;15.70;;;7.60;99.90;;;;;;5009281;28;20497;-64
2024/03/11 08:19:23;;;;;;;19.33;16.20;;;7.60;99.90;;;;;;5006554;28;20475;-64
2024/03/11 08:21:51;;;;;;;18.67;15.27;;;7.70;99.90;;;;;;5009496;28;20497;-64
2024/03/11 08:24:19;;;;;;;19.47;15.70;;;7.70;99.90;;;;;;5010760;28;20825;-64
2024/03/11 08:26:48;;;;;;;18.90;15.80;;;7.80;99.90;;;;;;5017772;28;20468;-65
2024/03/11 08:29:16;;;;;;;19.13;15.33;;;7.80;99.90;;;;;;5016148;28;20483;-65
2024/03/11 08:31:47;;;;;;;21.07;15.23;;;7.80;99.90;;;;;;5008618;28;20511;-64
2024/03/11 08:34:16;;;;;;;19.13;15.23;;;7.90;99.90;;;;;;5004113;28;20484;-64
2024/03/11 08:36:44;;;;;;;20.30;15.23;;;7.80;99.90;;;;;;5004970;28;20986;-64
2024/03/11 08:39:12;;;;;;;18.13;14.90;;;7.90;99.90;;;;;;5008499;28;21225;-64
2024/03/11 08:41:40;;;;;;;19.70;15.70;;;7.90;99.90;;;;;;5009340;28;20471;-64
2024/03/11 08:44:10;;;;;;;18.37;15.83;;;7.90;99.90;;;;;;5009865;28;20505;-64
2024/03/11 08:46:38;;;;;;;21.53;16.00;;;7.90;99.90;;;;;;5009192;28;20479;-64
2024/03/11 08:49:11;;;;;;;18.17;14.80;;;7.90;99.90;;;;;;5009722;28;20475;-64
2024/03/11 08:51:41;;;;;;;16.80;14.87;;;7.90;99.90;;;;;;5007061;28;21013;-65
2024/03/11 08:54:09;;;;;;;23.63;15.50;;;8.00;99.90;;;;;;5008339;28;20484;-64
2024/03/11 08:56:37;;;;;;;20.83;15.67;;;8.00;99.90;;;;;;5016790;28;20476;-64
2024/03/11 08:59:10;;;;;;;18.07;15.37;;;8.00;99.90;;;;;;5011094;28;20463;-63
2024/03/11 09:01:40;;;;;;;21.03;15.83;;;8.00;99.90;;;;;;5006692;28;20468;-63
2024/03/11 09:04:10;;;;;;;21.07;15.40;;;8.00;99.90;;;;;;5007995;28;20476;-64
2024/03/11 09:06:41;;;;;;;19.70;15.47;;;8.00;99.90;;;;;;5008215;28;20482;-64
2024/03/11 09:09:14;;;;;;;20.23;16.90;;;8.00;99.90;;;;;;5004965;28;20526;-64
2024/03/11 09:11:42;;;;;;;19.17;15.87;;;8.00;99.90;;;;;;5003396;28;20496;-64
2024/03/11 09:14:11;;;;;;;19.33;15.40;;;8.00;99.90;;;;;;5003900;28;20582;-64
2024/03/11 09:16:40;;;;;;;20.43;16.30;;;8.00;99.90;;;;;;5003005;28;22299;-64
2024/03/11 09:19:14;;;;;;;20.20;15.37;;;8.00;99.90;;;;;;5005166;28;20504;-63
2024/03/11 09:21:42;;;;;;;19.13;15.47;;;8.00;99.90;;;;;;5006604;28;20470;-63
2024/03/11 09:24:12;;;;;;;20.87;16.70;;;8.00;99.90;;;;;;5007172;28;20526;-64
2024/03/11 09:26:40;;;;;;;18.70;15.50;;;8.00;99.90;;;;;;5015759;28;20510;-64
2024/03/11 09:29:09;;;;;;;21.23;16.10;;;8.10;99.90;;;;;;5007404;28;20482;-67
2024/03/11 09:31:37;;;;;;;24.20;16.30;;;8.10;99.90;;;;;;5005368;28;20491;-64
2024/03/11 09:34:07;;;;;;;20.37;15.77;;;8.10;99.90;;;;;;5005265;28;20549;-64
2024/03/11 09:36:37;;;;;;;18.90;14.80;;;8.20;99.90;;;;;;5006461;28;20944;-65
2024/03/11 09:39:06;;;;;;;21.37;15.50;;;8.20;99.90;;;;;;5013914;28;20472;-64
2024/03/11 09:41:42;;;;;;;20.93;16.30;;;8.20;99.90;;;;;;5003631;28;20548;-64
2024/03/11 09:44:15;;;;;;;20.00;15.70;;;8.30;99.90;;;;;;5006064;28;20629;-64
2024/03/11 09:46:49;;;;;;;20.00;16.53;;;8.30;99.90;;;;;;5013659;28;21257;-64
2024/03/11 09:49:19;;;;;;;17.23;14.80;;;8.40;99.90;;;;;;5018489;28;20476;-63
2024/03/11 09:51:50;;;;;;;18.63;15.60;;;8.40;99.90;;;;;;5011516;28;20622;-64
2024/03/11 09:54:19;;;;;;;18.30;15.60;;;8.50;99.90;;;;;;5011592;28;20483;-64
2024/03/11 09:56:49;;;;;;;18.40;15.47;;;8.60;99.90;;;;;;5016900;28;20569;-64
2024/03/11 09:59:19;;;;;;;19.13;16.80;;;8.60;99.90;;;;;;5015798;28;20526;-63
2024/03/11 10:01:52;;;;;;;16.53;14.07;;;8.60;99.90;;;;;;5004067;28;20474;-64
2024/03/11 10:04:22;;;;;;;17.93;15.10;;;8.60;99.90;;;;;;5004621;28;20483;-64
2024/03/11 10:06:59;;;;;;;16.10;14.33;;;8.60;99.90;;;;;;5008519;28;20602;-66
2024/03/11 10:09:31;;;;;;;19.63;16.40;;;8.70;99.90;;;;;;5002380;28;21074;-66
2024/03/11 10:12:07;;;;;;;18.73;15.83;;;8.70;99.90;;;;;;5003947;28;20502;-67
2024/03/11 10:14:36;;;;;;;18.63;16.47;;;8.80;99.90;;;;;;4998471;28;20483;-66
2024/03/11 10:17:20;;;;;;;21.33;17.17;;;8.80;99.90;;;;;;5000904;28;22910;-65
2024/03/11 10:19:53;;;;;;;19.83;15.83;;;8.80;99.90;;;;;;5001710;28;20566;-67
2024/03/11 10:22:24;;;;;;;22.30;16.83;;;8.80;99.90;;;;;;5002566;28;20470;-65
2024/03/11 10:24:54;;;;;;;18.53;16.50;;;8.80;99.90;;;;;;5004053;28;20508;-65
2024/03/11 10:27:23;;;;;;;17.70;14.97;;;8.80;99.90;;;;;;5005375;28;20472;-65
2024/03/11 10:29:54;;;;;;;18.03;15.60;;;8.80;99.90;;;;;;5015943;28;20494;-65
2024/03/11 10:32:38;;;;;;;21.90;17.10;;;8.80;99.90;;;;;;5009980;28;20582;-65
2024/03/11 10:35:09;;;;;;;19.43;15.73;;;8.80;99.90;;;;;;5028134;28;20520;-66
2024/03/11 10:37:41;;;;;;;18.13;14.80;;;8.80;99.90;;;;;;5028253;28;20463;-67
2024/03/11 10:40:11;;;;;;;19.97;16.10;;;8.90;99.90;;;;;;5038130;28;20494;-65
2024/03/11 10:42:39;;;;;;;22.03;16.33;;;8.80;99.90;;;;;;5033014;28;20471;-65
2024/03/11 10:45:08;;;;;;;18.57;16.53;;;8.80;99.90;;;;;;5026438;28;20953;-66
2024/03/11 10:47:39;;;;;;;21.33;16.93;;;8.80;99.90;;;;;;5028715;28;21954;-65
2024/03/11 10:50:14;;;;;;;18.10;15.97;;;8.80;99.90;;;;;;5037846;28;21006;-65
2024/03/11 10:52:44;;;;;;;19.90;17.40;;;8.90;99.90;;;;;;5026716;28;20540;-66
2024/03/11 10:55:12;;;;;;;18.40;16.40;;;8.80;99.90;;;;;;5028940;28;20470;-67
2024/03/11 10:57:44;;;;;;;18.63;16.20;;;8.80;99.90;;;;;;5033290;28;20962;-65
2024/03/11 11:00:20;;;;;;;19.37;17.20;;;8.90;99.90;;;;;;5038468;28;20549;-65
2024/03/11 11:02:55;;;;;;;20.13;17.10;;;8.90;99.90;;;;;;5030606;28;20528;-66
2024/03/11 11:05:32;;;;;;;18.00;15.90;;;8.90;99.90;;;;;;5030251;28;20465;-65
2024/03/11 11:08:03;;;;;;;20.07;15.43;;;8.90;99.90;;;;;;5028209;28;20471;-66
2024/03/11 11:10:35;;;;;;;22.40;17.33;;;8.90;99.90;;;;;;5027755;28;20486;-65
2024/03/11 11:13:06;;;;;;;21.10;17.03;;;8.90;99.90;;;;;;5023938;28;20539;-65
2024/03/11 11:15:36;;;;;;;25.30;17.43;;;8.90;99.90;;;;;;5031103;28;21204;-64
2024/03/11 11:18:12;;;;;;;19.77;17.20;;;9.00;99.90;;;;;;5031461;28;20463;-64
2024/03/11 11:20:42;;;;;;;21.00;17.80;;;9.00;99.90;;;;;;5032140;28;21111;-66
2024/03/11 11:23:12;;;;;;;19.50;17.40;;;9.00;99.90;;;;;;5033768;28;20477;-64
2024/03/11 11:25:42;;;;;;;20.67;16.00;;;9.00;99.90;;;;;;5037446;28;20474;-65
2024/03/11 11:28:13;;;;;;;22.20;17.70;;;9.00;99.90;;;;;;5038954;28;20479;-65
2024/03/11 11:30:43;;;;;;;22.57;16.97;;;9.00;99.90;;;;;;5038154;28;20498;-64
2024/03/11 11:33:11;;;;;;;20.13;16.50;;;9.10;99.90;;;;;;5028468;28;21164;-66
2024/03/11 11:35:43;;;;;;;18.37;16.33;;;9.00;99.90;;;;;;5026091;28;20473;-64
2024/03/11 11:38:34;;;;;;;21.40;16.80;;;9.00;99.90;;;;;;5026330;28;20959;-66
2024/03/11 11:41:34;;;;;;;21.97;16.70;;;9.00;99.90;;;;;;5025446;28;20518;-65
2024/03/11 11:44:03;;;;;;;19.80;17.77;;;9.00;99.90;;;;;;5023513;28;20563;-65
2024/03/11 11:46:44;;;;;;;18.33;15.87;;;9.00;99.90;;;;;;5032342;28;20562;-65
2024/03/11 11:49:17;;;;;;;19.60;16.83;;;9.10;99.90;;;;;;5029258;28;20471;-64
2024/03/11 11:51:46;;;;;;;23.07;17.30;;;9.10;99.90;;;;;;5026753;28;20579;-65
2024/03/11 11:54:25;;;;;;;20.53;16.90;;;9.20;99.90;;;;;;5030150;28;20577;-65
2024/03/11 11:57:05;;;;;;;22.00;17.97;;;9.10;99.90;;;;;;5026937;28;20483;-65
2024/03/11 11:59:36;;;;;;;19.67;17.40;;;9.20;99.90;;;;;;5035449;28;20501;-64
2024/03/11 12:02:06;;;;;;;21.60;17.40;;;9.20;99.90;;;;;;5036784;28;20470;-65
2024/03/11 12:04:35;;;;;;;21.00;17.63;;;9.20;99.90;;;;;;5030827;28;20491;-65
2024/03/11 12:07:03;;;;;;;22.80;18.70;;;9.20;99.90;;;;;;5033653;28;21013;-65
2024/03/11 12:09:34;;;;;;;20.70;17.67;;;9.30;99.90;;;;;;5028299;28;20589;-66
2024/03/11 12:12:03;;;;;;;22.30;17.50;;;9.30;99.90;;;;;;5039260;28;20504;-66
2024/03/11 12:14:31;;;;;;;19.70;16.83;;;9.40;99.90;;;;;;5031289;28;20482;-65
2024/03/11 12:17:07;;;;;;;21.87;17.97;;;9.40;99.90;;;;;;5037620;28;20467;-65
2024/03/11 12:19:36;;;;;;;21.07;18.10;;;9.40;99.90;;;;;;5033899;28;20494;-65
2024/03/11 12:22:04;;;;;;;23.30;18.10;;;9.40;99.90;;;;;;5026608;28;20502;-65
2024/03/11 12:24:34;;;;;;;22.07;18.80;;;9.50;99.90;;;;;;5025885;28;20625;-65
2024/03/11 12:27:02;;;;;;;21.27;18.87;;;9.50;99.90;;;;;;5026831;28;20462;-65
2024/03/11 12:29:30;;;;;;;19.70;17.60;;;9.50;99.90;;;;;;5027682;28;20576;-63
2024/03/11 12:31:58;;;;;;;24.50;19.20;;;9.50;99.90;;;;;;5026273;28;20907;-63
2024/03/11 12:34:27;;;;;;;23.20;18.40;;;9.40;99.90;;;;;;5023047;28;20568;-64
2024/03/11 12:36:56;;;;;;;26.03;20.23;;;9.40;99.90;;;;;;5025465;28;20477;-64
2024/03/11 12:39:26;;;;;;;24.50;19.37;;;9.40;99.90;;;;;;5028558;28;20919;-64
2024/03/11 12:41:57;;;;;;;22.27;19.23;;;9.50;99.90;;;;;;5026563;28;20481;-64
2024/03/11 12:44:26;;;;;;;22.67;18.80;;;9.50;99.90;;;;;;5034093;28;20486;-64
2024/03/11 12:46:55;;;;;;;21.63;17.80;;;9.40;99.90;;;;;;5034595;28;20478;-64
2024/03/11 12:49:27;;;;;;;22.90;18.90;;;9.40;99.90;;;;;;5038251;28;20984;-64